sensor_id;sensor_type;location;lat;lon;timestamp;temperature;humidity
23147;DHT22;11742;53.532;-1.478;2023-02-15T00:01:45;12.10;78.10
23147;DHT22;11742;53.532;-1.478;2023-02-15T00:04:29;12.10;78.10
23147;DHT22;11742;53.532;-1.478;2023-02-15T00:07:30;12.10;78.10
23147;DHT22;11742;53.532;-1.478;2023-02-15T00:10:14;12.10;78.20
23147;DHT22;11742;53.532;-1.478;2023-02-15T00:12:59;12.00;78.10
23147;DHT22;11742;53.532;-1.478;2023-02-15T00:15:43;12.00;78.10
23147;DHT22;11742;53.532;-1.478;2023-02-15T00:18:28;12.00;78.20
23147;DHT22;11742;53.532;-1.478;2023-02-15T00:21:12;12.00;78.20
23147;DHT22;11742;53.532;-1.478;2023-02-15T00:24:00;11.90;78.10
23147;DHT22;11742;53.532;-1.478;2023-02-15T00:26:45;11.90;78.10
23147;DHT22;11742;53.532;-1.478;2023-02-15T00:29:29;11.90;78.10
23147;DHT22;11742;53.532;-1.478;2023-02-15T00:32:14;11.90;78.20
23147;DHT22;11742;53.532;-1.478;2023-02-15T00:34:58;11.80;78.10
23147;DHT22;11742;53.532;-1.478;2023-02-15T00:37:42;11.80;78.20
23147;DHT22;11742;53.532;-1.478;2023-02-15T00:40:26;11.80;78.40
23147;DHT22;11742;53.532;-1.478;2023-02-15T00:43:11;11.80;78.40
23147;DHT22;11742;53.532;-1.478;2023-02-15T00:45:55;11.80;78.40
23147;DHT22;11742;53.532;-1.478;2023-02-15T00:48:39;11.80;78.40
23147;DHT22;11742;53.532;-1.478;2023-02-15T00:51:23;11.70;78.40
23147;DHT22;11742;53.532;-1.478;2023-02-15T00:54:08;11.70;78.20
23147;DHT22;11742;53.532;-1.478;2023-02-15T00:56:52;11.70;78.10
23147;DHT22;11742;53.532;-1.478;2023-02-15T00:59:36;11.70;78.20
23147;DHT22;11742;53.532;-1.478;2023-02-15T01:02:20;11.60;78.00
23147;DHT22;11742;53.532;-1.478;2023-02-15T01:05:05;11.60;77.80
23147;DHT22;11742;53.532;-1.478;2023-02-15T01:07:49;11.60;77.90
23147;DHT22;11742;53.532;-1.478;2023-02-15T01:10:34;11.50;77.50
23147;DHT22;11742;53.532;-1.478;2023-02-15T01:13:19;11.50;77.40
23147;DHT22;11742;53.532;-1.478;2023-02-15T01:16:03;11.50;77.40
23147;DHT22;11742;53.532;-1.478;2023-02-15T01:18:48;11.40;77.30
23147;DHT22;11742;53.532;-1.478;2023-02-15T01:21:32;11.40;77.40
23147;DHT22;11742;53.532;-1.478;2023-02-15T01:24:18;11.40;77.60
23147;DHT22;11742;53.532;-1.478;2023-02-15T01:27:02;11.40;77.80
23147;DHT22;11742;53.532;-1.478;2023-02-15T01:29:46;11.30;78.00
23147;DHT22;11742;53.532;-1.478;2023-02-15T01:32:31;11.30;78.10
23147;DHT22;11742;53.532;-1.478;2023-02-15T01:35:15;11.30;78.10
23147;DHT22;11742;53.532;-1.478;2023-02-15T01:38:00;11.20;78.00
23147;DHT22;11742;53.532;-1.478;2023-02-15T01:40:44;11.20;78.10
23147;DHT22;11742;53.532;-1.478;2023-02-15T01:43:41;11.20;78.20
23147;DHT22;11742;53.532;-1.478;2023-02-15T01:46:30;11.20;78.20
23147;DHT22;11742;53.532;-1.478;2023-02-15T01:49:17;11.20;78.20
23147;DHT22;11742;53.532;-1.478;2023-02-15T01:52:03;11.20;78.30
23147;DHT22;11742;53.532;-1.478;2023-02-15T01:54:48;11.10;78.30
23147;DHT22;11742;53.532;-1.478;2023-02-15T01:57:32;11.10;78.30
23147;DHT22;11742;53.532;-1.478;2023-02-15T02:00:17;11.10;78.50
23147;DHT22;11742;53.532;-1.478;2023-02-15T02:03:01;11.10;78.40
23147;DHT22;11742;53.532;-1.478;2023-02-15T02:05:46;11.10;78.50
23147;DHT22;11742;53.532;-1.478;2023-02-15T02:08:30;11.10;78.50
23147;DHT22;11742;53.532;-1.478;2023-02-15T02:11:15;11.00;78.60
23147;DHT22;11742;53.532;-1.478;2023-02-15T02:13:59;11.10;78.70
23147;DHT22;11742;53.532;-1.478;2023-02-15T02:16:51;11.00;78.70
23147;DHT22;11742;53.532;-1.478;2023-02-15T02:34:16;10.90;78.60
23147;DHT22;11742;53.532;-1.478;2023-02-15T02:43:10;10.90;78.80
23147;DHT22;11742;53.532;-1.478;2023-02-15T02:46:15;10.90;78.80
23147;DHT22;11742;53.532;-1.478;2023-02-15T02:49:02;10.80;78.80
23147;DHT22;11742;53.532;-1.478;2023-02-15T02:51:46;10.80;78.90
23147;DHT22;11742;53.532;-1.478;2023-02-15T02:54:30;10.80;78.90
23147;DHT22;11742;53.532;-1.478;2023-02-15T02:57:16;10.80;78.90
23147;DHT22;11742;53.532;-1.478;2023-02-15T03:00:00;10.80;78.80
23147;DHT22;11742;53.532;-1.478;2023-02-15T03:02:46;10.80;78.80
23147;DHT22;11742;53.532;-1.478;2023-02-15T03:05:34;10.80;78.80
23147;DHT22;11742;53.532;-1.478;2023-02-15T03:08:20;10.70;78.90
23147;DHT22;11742;53.532;-1.478;2023-02-15T03:11:08;10.70;78.60
23147;DHT22;11742;53.532;-1.478;2023-02-15T03:13:53;10.70;78.70
23147;DHT22;11742;53.532;-1.478;2023-02-15T03:16:37;10.70;78.70
23147;DHT22;11742;53.532;-1.478;2023-02-15T03:19:25;10.60;78.70
23147;DHT22;11742;53.532;-1.478;2023-02-15T03:27:56;10.60;78.70
23147;DHT22;11742;53.532;-1.478;2023-02-15T03:30:43;10.50;78.80
23147;DHT22;11742;53.532;-1.478;2023-02-15T03:33:29;10.60;78.80
23147;DHT22;11742;53.532;-1.478;2023-02-15T03:41:58;10.50;78.90
23147;DHT22;11742;53.532;-1.478;2023-02-15T03:44:47;10.50;79.00
23147;DHT22;11742;53.532;-1.478;2023-02-15T03:47:34;10.40;78.90
23147;DHT22;11742;53.532;-1.478;2023-02-15T03:50:20;10.40;79.00
23147;DHT22;11742;53.532;-1.478;2023-02-15T03:53:24;10.40;79.10
23147;DHT22;11742;53.532;-1.478;2023-02-15T03:56:09;10.40;79.10
23147;DHT22;11742;53.532;-1.478;2023-02-15T03:58:53;10.40;79.10
23147;DHT22;11742;53.532;-1.478;2023-02-15T04:02:07;10.40;79.20
23147;DHT22;11742;53.532;-1.478;2023-02-15T04:04:56;10.30;79.20
23147;DHT22;11742;53.532;-1.478;2023-02-15T04:07:40;10.30;79.30
23147;DHT22;11742;53.532;-1.478;2023-02-15T04:10:24;10.30;79.30
23147;DHT22;11742;53.532;-1.478;2023-02-15T04:13:31;10.30;79.50
23147;DHT22;11742;53.532;-1.478;2023-02-15T04:16:15;10.30;79.50
23147;DHT22;11742;53.532;-1.478;2023-02-15T04:19:00;10.30;79.50
23147;DHT22;11742;53.532;-1.478;2023-02-15T04:22:03;10.20;79.50
23147;DHT22;11742;53.532;-1.478;2023-02-15T04:25:06;10.20;79.60
23147;DHT22;11742;53.532;-1.478;2023-02-15T04:27:57;10.20;79.60
23147;DHT22;11742;53.532;-1.478;2023-02-15T04:30:41;10.20;79.80
23147;DHT22;11742;53.532;-1.478;2023-02-15T04:33:25;10.20;79.70
23147;DHT22;11742;53.532;-1.478;2023-02-15T04:36:09;10.20;79.80
23147;DHT22;11742;53.532;-1.478;2023-02-15T04:38:53;10.20;79.80
23147;DHT22;11742;53.532;-1.478;2023-02-15T04:41:37;10.20;79.80
23147;DHT22;11742;53.532;-1.478;2023-02-15T04:44:22;10.20;80.00
23147;DHT22;11742;53.532;-1.478;2023-02-15T04:47:06;10.10;79.90
23147;DHT22;11742;53.532;-1.478;2023-02-15T04:49:50;10.10;79.90
23147;DHT22;11742;53.532;-1.478;2023-02-15T04:52:35;10.10;79.90
23147;DHT22;11742;53.532;-1.478;2023-02-15T04:55:19;10.10;80.00
23147;DHT22;11742;53.532;-1.478;2023-02-15T04:58:03;10.10;80.00
23147;DHT22;11742;53.532;-1.478;2023-02-15T05:00:48;10.10;80.00
23147;DHT22;11742;53.532;-1.478;2023-02-15T05:03:32;10.10;80.00
23147;DHT22;11742;53.532;-1.478;2023-02-15T05:06:16;10.10;80.10
23147;DHT22;11742;53.532;-1.478;2023-02-15T05:09:01;10.10;80.10
23147;DHT22;11742;53.532;-1.478;2023-02-15T05:11:46;10.10;80.10
23147;DHT22;11742;53.532;-1.478;2023-02-15T05:14:30;10.00;80.00
23147;DHT22;11742;53.532;-1.478;2023-02-15T05:17:14;10.10;80.20
23147;DHT22;11742;53.532;-1.478;2023-02-15T05:19:58;10.10;80.20
23147;DHT22;11742;53.532;-1.478;2023-02-15T05:22:42;10.00;80.20
23147;DHT22;11742;53.532;-1.478;2023-02-15T05:25:27;10.00;80.20
23147;DHT22;11742;53.532;-1.478;2023-02-15T05:28:30;10.00;80.30
23147;DHT22;11742;53.532;-1.478;2023-02-15T05:31:15;10.00;80.20
23147;DHT22;11742;53.532;-1.478;2023-02-15T05:34:00;10.00;80.20
23147;DHT22;11742;53.532;-1.478;2023-02-15T05:36:44;10.00;80.20
23147;DHT22;11742;53.532;-1.478;2023-02-15T05:39:29;10.00;80.20
23147;DHT22;11742;53.532;-1.478;2023-02-15T05:42:13;10.00;80.20
23147;DHT22;11742;53.532;-1.478;2023-02-15T05:44:57;10.00;80.20
23147;DHT22;11742;53.532;-1.478;2023-02-15T05:47:41;10.00;80.10
23147;DHT22;11742;53.532;-1.478;2023-02-15T05:50:26;10.00;80.20
23147;DHT22;11742;53.532;-1.478;2023-02-15T05:53:11;10.00;80.20
23147;DHT22;11742;53.532;-1.478;2023-02-15T05:55:55;10.00;80.20
23147;DHT22;11742;53.532;-1.478;2023-02-15T05:58:42;10.00;80.20
23147;DHT22;11742;53.532;-1.478;2023-02-15T06:01:27;10.00;80.30
23147;DHT22;11742;53.532;-1.478;2023-02-15T06:04:11;10.00;80.30
23147;DHT22;11742;53.532;-1.478;2023-02-15T06:06:56;9.90;80.20
23147;DHT22;11742;53.532;-1.478;2023-02-15T06:09:40;10.00;80.20
23147;DHT22;11742;53.532;-1.478;2023-02-15T06:12:24;9.90;80.20
23147;DHT22;11742;53.532;-1.478;2023-02-15T06:15:09;9.90;80.10
23147;DHT22;11742;53.532;-1.478;2023-02-15T06:17:53;9.90;80.10
23147;DHT22;11742;53.532;-1.478;2023-02-15T06:20:37;9.90;80.10
23147;DHT22;11742;53.532;-1.478;2023-02-15T06:23:22;9.90;80.10
23147;DHT22;11742;53.532;-1.478;2023-02-15T06:26:06;9.90;80.10
23147;DHT22;11742;53.532;-1.478;2023-02-15T06:28:50;9.90;80.00
23147;DHT22;11742;53.532;-1.478;2023-02-15T06:31:34;9.90;79.90
23147;DHT22;11742;53.532;-1.478;2023-02-15T06:34:18;9.90;79.90
23147;DHT22;11742;53.532;-1.478;2023-02-15T06:37:03;9.90;79.80
23147;DHT22;11742;53.532;-1.478;2023-02-15T06:39:47;9.90;79.70
23147;DHT22;11742;53.532;-1.478;2023-02-15T06:42:31;9.80;79.60
23147;DHT22;11742;53.532;-1.478;2023-02-15T06:45:15;9.80;79.60
23147;DHT22;11742;53.532;-1.478;2023-02-15T06:48:00;9.80;79.60
23147;DHT22;11742;53.532;-1.478;2023-02-15T06:50:44;9.80;79.60
23147;DHT22;11742;53.532;-1.478;2023-02-15T06:53:28;9.80;79.60
23147;DHT22;11742;53.532;-1.478;2023-02-15T06:56:12;9.80;79.60
23147;DHT22;11742;53.532;-1.478;2023-02-15T06:58:57;9.70;79.50
23147;DHT22;11742;53.532;-1.478;2023-02-15T07:01:41;9.70;79.60
23147;DHT22;11742;53.532;-1.478;2023-02-15T07:04:25;9.70;79.60
23147;DHT22;11742;53.532;-1.478;2023-02-15T07:07:10;9.70;79.70
23147;DHT22;11742;53.532;-1.478;2023-02-15T07:09:55;9.70;79.70
23147;DHT22;11742;53.532;-1.478;2023-02-15T07:12:39;9.70;79.70
23147;DHT22;11742;53.532;-1.478;2023-02-15T07:15:26;9.60;79.60
23147;DHT22;11742;53.532;-1.478;2023-02-15T07:18:10;9.60;79.60
23147;DHT22;11742;53.532;-1.478;2023-02-15T07:20:55;9.60;79.60
23147;DHT22;11742;53.532;-1.478;2023-02-15T07:23:39;9.60;79.70
23147;DHT22;11742;53.532;-1.478;2023-02-15T07:26:23;9.60;79.70
23147;DHT22;11742;53.532;-1.478;2023-02-15T07:29:08;9.60;79.60
23147;DHT22;11742;53.532;-1.478;2023-02-15T07:31:52;9.50;79.60
23147;DHT22;11742;53.532;-1.478;2023-02-15T07:34:36;9.50;79.60
23147;DHT22;11742;53.532;-1.478;2023-02-15T07:37:20;9.50;79.60
23147;DHT22;11742;53.532;-1.478;2023-02-15T07:40:05;9.50;79.70
23147;DHT22;11742;53.532;-1.478;2023-02-15T07:42:50;9.50;79.80
23147;DHT22;11742;53.532;-1.478;2023-02-15T07:45:36;9.50;79.90
23147;DHT22;11742;53.532;-1.478;2023-02-15T07:48:21;9.50;80.00
23147;DHT22;11742;53.532;-1.478;2023-02-15T07:51:06;9.50;80.10
23147;DHT22;11742;53.532;-1.478;2023-02-15T07:53:51;9.50;80.30
23147;DHT22;11742;53.532;-1.478;2023-02-15T07:56:35;9.40;80.40
23147;DHT22;11742;53.532;-1.478;2023-02-15T07:59:19;9.50;80.70
23147;DHT22;11742;53.532;-1.478;2023-02-15T08:02:05;9.50;80.80
23147;DHT22;11742;53.532;-1.478;2023-02-15T08:04:50;9.50;80.90
23147;DHT22;11742;53.532;-1.478;2023-02-15T08:07:34;9.50;80.90
23147;DHT22;11742;53.532;-1.478;2023-02-15T08:10:18;9.50;81.10
23147;DHT22;11742;53.532;-1.478;2023-02-15T08:13:22;9.50;81.20
23147;DHT22;11742;53.532;-1.478;2023-02-15T08:16:06;9.50;81.30
23147;DHT22;11742;53.532;-1.478;2023-02-15T08:18:51;9.50;81.40
23147;DHT22;11742;53.532;-1.478;2023-02-15T08:21:37;9.50;81.80
23147;DHT22;11742;53.532;-1.478;2023-02-15T08:24:22;9.50;82.20
23147;DHT22;11742;53.532;-1.478;2023-02-15T08:27:07;9.50;83.00
23147;DHT22;11742;53.532;-1.478;2023-02-15T08:29:51;9.50;83.90
23147;DHT22;11742;53.532;-1.478;2023-02-15T08:32:36;9.60;84.10
23147;DHT22;11742;53.532;-1.478;2023-02-15T08:35:20;9.60;84.10
23147;DHT22;11742;53.532;-1.478;2023-02-15T08:38:04;9.70;84.00
23147;DHT22;11742;53.532;-1.478;2023-02-15T08:40:49;9.70;84.60
23147;DHT22;11742;53.532;-1.478;2023-02-15T08:43:33;9.80;85.20
23147;DHT22;11742;53.532;-1.478;2023-02-15T08:46:17;9.80;85.40
23147;DHT22;11742;53.532;-1.478;2023-02-15T08:49:02;9.80;85.70
23147;DHT22;11742;53.532;-1.478;2023-02-15T08:51:47;9.90;85.80
23147;DHT22;11742;53.532;-1.478;2023-02-15T08:54:31;9.90;85.70
23147;DHT22;11742;53.532;-1.478;2023-02-15T08:57:16;10.00;85.60
23147;DHT22;11742;53.532;-1.478;2023-02-15T09:00:00;10.10;85.50
23147;DHT22;11742;53.532;-1.478;2023-02-15T09:02:44;10.10;85.40
23147;DHT22;11742;53.532;-1.478;2023-02-15T09:05:29;10.20;85.40
23147;DHT22;11742;53.532;-1.478;2023-02-15T09:08:13;10.20;85.40
23147;DHT22;11742;53.532;-1.478;2023-02-15T09:11:07;10.30;85.20
23147;DHT22;11742;53.532;-1.478;2023-02-15T09:13:57;10.30;85.00
23147;DHT22;11742;53.532;-1.478;2023-02-15T09:16:42;10.40;84.70
23147;DHT22;11742;53.532;-1.478;2023-02-15T09:19:28;10.50;84.80
23147;DHT22;11742;53.532;-1.478;2023-02-15T09:22:12;10.50;84.70
23147;DHT22;11742;53.532;-1.478;2023-02-15T09:24:56;10.60;84.80
23147;DHT22;11742;53.532;-1.478;2023-02-15T09:27:40;10.70;85.10
23147;DHT22;11742;53.532;-1.478;2023-02-15T09:30:25;10.70;85.40
23147;DHT22;11742;53.532;-1.478;2023-02-15T09:33:09;10.80;85.90
23147;DHT22;11742;53.532;-1.478;2023-02-15T09:35:53;10.90;86.20
23147;DHT22;11742;53.532;-1.478;2023-02-15T09:38:37;11.00;86.50
23147;DHT22;11742;53.532;-1.478;2023-02-15T09:53:22;11.40;88.30
23147;DHT22;11742;53.532;-1.478;2023-02-15T09:56:12;11.50;88.60
23147;DHT22;11742;53.532;-1.478;2023-02-15T09:59:15;11.60;88.80
23147;DHT22;11742;53.532;-1.478;2023-02-15T10:02:24;11.70;88.60
23147;DHT22;11742;53.532;-1.478;2023-02-15T10:31:51;12.60;87.80
23147;DHT22;11742;53.532;-1.478;2023-02-15T10:34:37;12.70;87.70
23147;DHT22;11742;53.532;-1.478;2023-02-15T10:37:27;12.80;87.40
23147;DHT22;11742;53.532;-1.478;2023-02-15T10:43:06;13.00;87.20
23147;DHT22;11742;53.532;-1.478;2023-02-15T10:46:02;13.10;87.10
23147;DHT22;11742;53.532;-1.478;2023-02-15T10:54:35;13.30;87.20
23147;DHT22;11742;53.532;-1.478;2023-02-15T11:00:23;13.50;86.60
23147;DHT22;11742;53.532;-1.478;2023-02-15T11:06:09;13.70;86.60
23147;DHT22;11742;53.532;-1.478;2023-02-15T11:08:59;13.70;86.40
23147;DHT22;11742;53.532;-1.478;2023-02-15T11:11:46;13.80;86.10
23147;DHT22;11742;53.532;-1.478;2023-02-15T11:14:49;13.90;85.90
23147;DHT22;11742;53.532;-1.478;2023-02-15T11:17:36;14.00;85.40
23147;DHT22;11742;53.532;-1.478;2023-02-15T11:20:31;14.10;85.10
23147;DHT22;11742;53.532;-1.478;2023-02-15T11:23:16;14.20;85.60
23147;DHT22;11742;53.532;-1.478;2023-02-15T11:26:03;14.20;85.80
23147;DHT22;11742;53.532;-1.478;2023-02-15T11:29:32;14.30;85.80
23147;DHT22;11742;53.532;-1.478;2023-02-15T11:32:18;14.40;85.30
23147;DHT22;11742;53.532;-1.478;2023-02-15T11:37:48;14.60;85.30
23147;DHT22;11742;53.532;-1.478;2023-02-15T11:40:35;14.70;85.60
23147;DHT22;11742;53.532;-1.478;2023-02-15T11:43:21;14.80;85.60
23147;DHT22;11742;53.532;-1.478;2023-02-15T11:46:07;14.80;85.40
23147;DHT22;11742;53.532;-1.478;2023-02-15T11:48:52;14.90;85.30
23147;DHT22;11742;53.532;-1.478;2023-02-15T11:51:37;15.00;85.10
23147;DHT22;11742;53.532;-1.478;2023-02-15T11:54:22;15.10;85.20
23147;DHT22;11742;53.532;-1.478;2023-02-15T11:57:14;15.10;85.20
23147;DHT22;11742;53.532;-1.478;2023-02-15T12:00:04;15.20;85.20
23147;DHT22;11742;53.532;-1.478;2023-02-15T12:02:51;15.30;85.00
23147;DHT22;11742;53.532;-1.478;2023-02-15T12:05:37;15.30;83.80
23147;DHT22;11742;53.532;-1.478;2023-02-15T12:08:23;15.40;84.20
23147;DHT22;11742;53.532;-1.478;2023-02-15T12:11:12;15.40;84.30
23147;DHT22;11742;53.532;-1.478;2023-02-15T12:14:03;15.50;83.90
23147;DHT22;11742;53.532;-1.478;2023-02-15T12:16:49;15.60;83.90
23147;DHT22;11742;53.532;-1.478;2023-02-15T12:19:38;15.60;83.50
23147;DHT22;11742;53.532;-1.478;2023-02-15T12:22:34;15.70;83.50
23147;DHT22;11742;53.532;-1.478;2023-02-15T12:25:21;15.70;84.30
23147;DHT22;11742;53.532;-1.478;2023-02-15T12:28:15;15.80;83.50
23147;DHT22;11742;53.532;-1.478;2023-02-15T12:31:03;15.80;83.50
23147;DHT22;11742;53.532;-1.478;2023-02-15T12:33:52;15.90;83.60
23147;DHT22;11742;53.532;-1.478;2023-02-15T12:36:56;16.00;84.00
23147;DHT22;11742;53.532;-1.478;2023-02-15T12:39:52;16.00;84.00
23147;DHT22;11742;53.532;-1.478;2023-02-15T12:42:41;16.10;83.60
23147;DHT22;11742;53.532;-1.478;2023-02-15T12:45:29;16.20;83.40
23147;DHT22;11742;53.532;-1.478;2023-02-15T12:51:06;16.30;82.90
23147;DHT22;11742;53.532;-1.478;2023-02-15T12:53:51;16.30;82.30
23147;DHT22;11742;53.532;-1.478;2023-02-15T12:56:35;16.40;81.90
23147;DHT22;11742;53.532;-1.478;2023-02-15T12:59:20;16.40;81.90
23147;DHT22;11742;53.532;-1.478;2023-02-15T13:02:05;16.40;81.80
23147;DHT22;11742;53.532;-1.478;2023-02-15T13:04:50;16.40;81.80
23147;DHT22;11742;53.532;-1.478;2023-02-15T13:07:35;16.40;81.90
23147;DHT22;11742;53.532;-1.478;2023-02-15T13:10:28;16.50;81.90
23147;DHT22;11742;53.532;-1.478;2023-02-15T13:13:17;16.50;81.90
23147;DHT22;11742;53.532;-1.478;2023-02-15T13:16:06;16.50;82.30
23147;DHT22;11742;53.532;-1.478;2023-02-15T13:18:53;16.50;82.40
23147;DHT22;11742;53.532;-1.478;2023-02-15T13:21:39;16.50;82.60
23147;DHT22;11742;53.532;-1.478;2023-02-15T13:24:24;16.60;82.30
23147;DHT22;11742;53.532;-1.478;2023-02-15T13:27:10;16.60;82.30
23147;DHT22;11742;53.532;-1.478;2023-02-15T13:29:57;16.60;82.30
23147;DHT22;11742;53.532;-1.478;2023-02-15T13:32:42;16.70;82.40
23147;DHT22;11742;53.532;-1.478;2023-02-15T13:35:27;16.70;82.30
23147;DHT22;11742;53.532;-1.478;2023-02-15T13:38:30;16.70;82.10
23147;DHT22;11742;53.532;-1.478;2023-02-15T13:44:15;16.80;82.20
23147;DHT22;11742;53.532;-1.478;2023-02-15T13:47:06;16.80;82.00
23147;DHT22;11742;53.532;-1.478;2023-02-15T14:19:30;16.60;80.70
23147;DHT22;11742;53.532;-1.478;2023-02-15T14:31:12;16.70;80.20
23147;DHT22;11742;53.532;-1.478;2023-02-15T14:33:57;16.70;80.10
23147;DHT22;11742;53.532;-1.478;2023-02-15T14:36:41;16.70;80.30
23147;DHT22;11742;53.532;-1.478;2023-02-15T14:39:36;16.70;80.20
23147;DHT22;11742;53.532;-1.478;2023-02-15T14:42:48;16.70;80.10
23147;DHT22;11742;53.532;-1.478;2023-02-15T14:45:50;16.70;80.10
23147;DHT22;11742;53.532;-1.478;2023-02-15T14:48:45;16.80;80.20
23147;DHT22;11742;53.532;-1.478;2023-02-15T15:02:47;16.80;79.90
23147;DHT22;11742;53.532;-1.478;2023-02-15T15:08:31;16.80;79.80
23147;DHT22;11742;53.532;-1.478;2023-02-15T15:14:56;16.80;79.80
23147;DHT22;11742;53.532;-1.478;2023-02-15T15:23:39;16.80;80.00
23147;DHT22;11742;53.532;-1.478;2023-02-15T15:26:25;16.80;80.10
23147;DHT22;11742;53.532;-1.478;2023-02-15T15:29:10;16.80;80.00
23147;DHT22;11742;53.532;-1.478;2023-02-15T15:31:54;16.80;79.90
23147;DHT22;11742;53.532;-1.478;2023-02-15T15:49:39;16.80;79.50
23147;DHT22;11742;53.532;-1.478;2023-02-15T15:52:23;16.80;79.50
23147;DHT22;11742;53.532;-1.478;2023-02-15T15:55:14;16.80;79.50
23147;DHT22;11742;53.532;-1.478;2023-02-15T15:58:00;16.80;79.30
23147;DHT22;11742;53.532;-1.478;2023-02-15T16:03:29;16.80;79.10
23147;DHT22;11742;53.532;-1.478;2023-02-15T16:06:14;16.80;78.90
23147;DHT22;11742;53.532;-1.478;2023-02-15T16:09:11;16.70;78.80
23147;DHT22;11742;53.532;-1.478;2023-02-15T16:11:56;16.70;78.70
23147;DHT22;11742;53.532;-1.478;2023-02-15T16:14:44;16.70;78.50
23147;DHT22;11742;53.532;-1.478;2023-02-15T16:17:30;16.70;78.30
23147;DHT22;11742;53.532;-1.478;2023-02-15T16:20:16;16.70;78.20
23147;DHT22;11742;53.532;-1.478;2023-02-15T16:28:49;16.70;77.70
23147;DHT22;11742;53.532;-1.478;2023-02-15T16:31:35;16.70;77.60
23147;DHT22;11742;53.532;-1.478;2023-02-15T16:34:19;16.60;77.50
23147;DHT22;11742;53.532;-1.478;2023-02-15T16:39:57;16.60;77.20
23147;DHT22;11742;53.532;-1.478;2023-02-15T16:42:41;16.60;77.10
23147;DHT22;11742;53.532;-1.478;2023-02-15T16:45:26;16.60;77.00
23147;DHT22;11742;53.532;-1.478;2023-02-15T16:48:23;16.60;76.90
23147;DHT22;11742;53.532;-1.478;2023-02-15T16:51:08;16.50;76.70
23147;DHT22;11742;53.532;-1.478;2023-02-15T16:53:53;16.50;76.60
23147;DHT22;11742;53.532;-1.478;2023-02-15T16:56:38;16.50;76.60
23147;DHT22;11742;53.532;-1.478;2023-02-15T17:02:16;16.40;76.40
23147;DHT22;11742;53.532;-1.478;2023-02-15T17:05:02;16.40;76.40
23147;DHT22;11742;53.532;-1.478;2023-02-15T17:08:06;16.40;76.40
23147;DHT22;11742;53.532;-1.478;2023-02-15T17:14:30;16.30;76.30
23147;DHT22;11742;53.532;-1.478;2023-02-15T17:16:50;16.30;76.30
23147;DHT22;11742;53.532;-1.478;2023-02-15T17:19:57;16.30;76.30
23147;DHT22;11742;53.532;-1.478;2023-02-15T17:22:40;16.30;76.30
23147;DHT22;11742;53.532;-1.478;2023-02-15T17:25:43;16.20;76.20
23147;DHT22;11742;53.532;-1.478;2023-02-15T17:28:28;16.20;76.20
23147;DHT22;11742;53.532;-1.478;2023-02-15T17:31:13;16.20;76.10
23147;DHT22;11742;53.532;-1.478;2023-02-15T17:34:00;16.20;76.10
23147;DHT22;11742;53.532;-1.478;2023-02-15T17:36:57;16.10;76.10
23147;DHT22;11742;53.532;-1.478;2023-02-15T17:39:42;16.10;76.20
23147;DHT22;11742;53.532;-1.478;2023-02-15T17:42:26;16.10;76.10
23147;DHT22;11742;53.532;-1.478;2023-02-15T17:45:10;16.10;76.20
23147;DHT22;11742;53.532;-1.478;2023-02-15T17:47:55;16.00;76.10
23147;DHT22;11742;53.532;-1.478;2023-02-15T17:50:42;16.00;76.10
23147;DHT22;11742;53.532;-1.478;2023-02-15T17:53:26;16.00;76.10
23147;DHT22;11742;53.532;-1.478;2023-02-15T17:56:10;15.90;76.30
23147;DHT22;11742;53.532;-1.478;2023-02-15T17:58:55;15.90;76.20
23147;DHT22;11742;53.532;-1.478;2023-02-15T18:01:46;15.90;76.00
23147;DHT22;11742;53.532;-1.478;2023-02-15T18:04:50;15.90;76.10
23147;DHT22;11742;53.532;-1.478;2023-02-15T18:07:54;15.80;76.10
23147;DHT22;11742;53.532;-1.478;2023-02-15T18:10:57;15.80;76.10
23147;DHT22;11742;53.532;-1.478;2023-02-15T18:14:00;15.70;76.00
23147;DHT22;11742;53.532;-1.478;2023-02-15T18:16:44;15.70;76.00
23147;DHT22;11742;53.532;-1.478;2023-02-15T18:19:29;15.70;76.20
23147;DHT22;11742;53.532;-1.478;2023-02-15T18:22:15;15.60;76.10
23147;DHT22;11742;53.532;-1.478;2023-02-15T18:24:59;15.60;76.10
23147;DHT22;11742;53.532;-1.478;2023-02-15T18:27:43;15.60;76.10
23147;DHT22;11742;53.532;-1.478;2023-02-15T18:30:28;15.50;76.00
23147;DHT22;11742;53.532;-1.478;2023-02-15T18:33:23;15.50;76.10
23147;DHT22;11742;53.532;-1.478;2023-02-15T18:36:12;15.50;76.20
23147;DHT22;11742;53.532;-1.478;2023-02-15T18:38:57;15.50;76.30
23147;DHT22;11742;53.532;-1.478;2023-02-15T18:41:41;15.40;76.10
23147;DHT22;11742;53.532;-1.478;2023-02-15T18:44:26;15.40;76.10
23147;DHT22;11742;53.532;-1.478;2023-02-15T18:47:10;15.40;76.30
23147;DHT22;11742;53.532;-1.478;2023-02-15T18:49:54;15.30;76.20
23147;DHT22;11742;53.532;-1.478;2023-02-15T18:52:39;15.30;76.30
23147;DHT22;11742;53.532;-1.478;2023-02-15T18:55:24;15.30;76.30
23147;DHT22;11742;53.532;-1.478;2023-02-15T18:58:19;15.20;76.20
23147;DHT22;11742;53.532;-1.478;2023-02-15T19:01:04;15.20;76.40
23147;DHT22;11742;53.532;-1.478;2023-02-15T19:03:51;15.20;76.40
23147;DHT22;11742;53.532;-1.478;2023-02-15T19:06:35;15.20;76.30
23147;DHT22;11742;53.532;-1.478;2023-02-15T19:09:21;15.10;76.40
23147;DHT22;11742;53.532;-1.478;2023-02-15T19:12:07;15.10;76.10
23147;DHT22;11742;53.532;-1.478;2023-02-15T19:14:53;14.90;74.30
23147;DHT22;11742;53.532;-1.478;2023-02-15T19:17:39;14.80;75.40
23147;DHT22;11742;53.532;-1.478;2023-02-15T19:20:25;14.70;75.80
23147;DHT22;11742;53.532;-1.478;2023-02-15T19:23:22;14.60;76.00
23147;DHT22;11742;53.532;-1.478;2023-02-15T19:26:07;14.60;76.10
23147;DHT22;11742;53.532;-1.478;2023-02-15T19:28:53;14.60;76.10
23147;DHT22;11742;53.532;-1.478;2023-02-15T19:31:37;14.60;76.20
23147;DHT22;11742;53.532;-1.478;2023-02-15T19:34:21;14.50;76.10
23147;DHT22;11742;53.532;-1.478;2023-02-15T19:37:06;14.50;76.20
23147;DHT22;11742;53.532;-1.478;2023-02-15T19:39:50;14.50;76.20
23147;DHT22;11742;53.532;-1.478;2023-02-15T19:42:35;14.50;76.20
23147;DHT22;11742;53.532;-1.478;2023-02-15T19:45:20;14.40;76.20
23147;DHT22;11742;53.532;-1.478;2023-02-15T19:48:05;14.40;76.20
23147;DHT22;11742;53.532;-1.478;2023-02-15T19:50:49;14.40;76.30
23147;DHT22;11742;53.532;-1.478;2023-02-15T19:53:35;14.30;76.40
23147;DHT22;11742;53.532;-1.478;2023-02-15T19:56:20;14.30;76.50
23147;DHT22;11742;53.532;-1.478;2023-02-15T19:59:09;14.30;76.50
23147;DHT22;11742;53.532;-1.478;2023-02-15T20:01:56;14.30;76.60
23147;DHT22;11742;53.532;-1.478;2023-02-15T20:04:41;14.30;76.60
23147;DHT22;11742;53.532;-1.478;2023-02-15T20:07:25;14.20;76.50
23147;DHT22;11742;53.532;-1.478;2023-02-15T20:10:14;14.20;76.60
23147;DHT22;11742;53.532;-1.478;2023-02-15T20:12:59;14.20;76.70
23147;DHT22;11742;53.532;-1.478;2023-02-15T20:15:43;14.10;76.60
23147;DHT22;11742;53.532;-1.478;2023-02-15T20:18:28;14.10;76.60
23147;DHT22;11742;53.532;-1.478;2023-02-15T20:21:13;14.10;76.70
23147;DHT22;11742;53.532;-1.478;2023-02-15T20:23:59;14.10;76.80
23147;DHT22;11742;53.532;-1.478;2023-02-15T20:26:43;14.10;76.80
23147;DHT22;11742;53.532;-1.478;2023-02-15T20:29:28;14.10;76.80